createdAt,value
2022-09-29T00:01:31.813Z,2.50
2022-09-29T00:04:01.597Z,2.70
2022-09-29T00:06:29.578Z,3.20
2022-09-29T00:08:59.461Z,3.53
2022-09-29T00:11:27.391Z,2.83
2022-09-29T00:13:56.240Z,2.50
2022-09-29T00:16:24.126Z,3.30
2022-09-29T00:18:55.602Z,3.10
2022-09-29T00:21:24.828Z,3.03
2022-09-29T00:23:53.647Z,3.20
2022-09-29T00:26:23.464Z,3.23
2022-09-29T00:28:54.210Z,3.20
2022-09-29T00:31:23.114Z,4.17
2022-09-29T00:33:52.114Z,6.00
2022-09-29T00:36:21.985Z,4.90
2022-09-29T00:38:53.121Z,3.87
2022-09-29T00:41:24.239Z,3.63
2022-09-29T00:43:58.494Z,3.97
2022-09-29T00:46:41.422Z,4.70
2022-09-29T00:49:16.541Z,4.23
2022-09-29T00:51:50.251Z,4.50
2022-09-29T00:54:21.060Z,4.63
2022-09-29T00:56:51.624Z,4.90
2022-09-29T00:59:26.776Z,4.87
2022-09-29T01:01:54.817Z,4.03
2022-09-29T01:04:23.887Z,4.47
2022-09-29T01:06:54.449Z,4.77
2022-09-29T01:09:29.059Z,4.10
2022-09-29T01:11:59.170Z,3.93
2022-09-29T01:14:29.833Z,4.67
2022-09-29T01:16:57.653Z,4.30
2022-09-29T01:19:37.408Z,5.10
2022-09-29T01:22:12.641Z,5.23
2022-09-29T01:24:59.677Z,4.97
2022-09-29T01:27:48.210Z,5.00
2022-09-29T01:30:21.579Z,5.30
2022-09-29T01:33:12.072Z,4.13
2022-09-29T01:35:50.269Z,4.90
2022-09-29T01:38:43.043Z,5.47
2022-09-29T01:41:17.437Z,5.80
2022-09-29T01:43:51.207Z,6.00
2022-09-29T01:46:25.752Z,6.37
2022-09-29T01:48:58.139Z,5.10
2022-09-29T01:51:31.289Z,6.03
2022-09-29T01:54:05.894Z,6.13
2022-09-29T01:56:38.290Z,6.00
2022-09-29T01:59:14.294Z,6.40
2022-09-29T02:01:47.901Z,6.13
2022-09-29T02:04:22.883Z,6.77
2022-09-29T02:06:57.204Z,6.87
2022-09-29T02:09:32.053Z,7.27
2022-09-29T02:12:04.921Z,6.83
2022-09-29T02:14:39.561Z,5.90
2022-09-29T02:17:13.688Z,6.50
2022-09-29T02:19:45.052Z,7.53
2022-09-29T02:22:13.278Z,8.07
2022-09-29T02:24:42.058Z,7.70
2022-09-29T02:27:10.348Z,7.53
2022-09-29T02:29:40.685Z,7.40
2022-09-29T02:32:10.278Z,8.20
2022-09-29T02:34:43.867Z,7.97
2022-09-29T02:37:27.311Z,8.97
2022-09-29T02:40:03.208Z,7.70
2022-09-29T02:42:40.079Z,7.10
2022-09-29T02:45:30.557Z,7.77
2022-09-29T02:48:14.345Z,7.47
2022-09-29T02:51:04.129Z,7.90
2022-09-29T02:53:49.116Z,8.53
2022-09-29T02:56:28.064Z,6.10
2022-09-29T02:59:03.982Z,7.70
2022-09-29T03:01:32.654Z,6.87
2022-09-29T03:04:04.367Z,7.90
2022-09-29T03:06:32.872Z,7.43
2022-09-29T03:09:02.791Z,6.57
2022-09-29T03:11:30.733Z,6.97
2022-09-29T03:13:58.980Z,6.73
2022-09-29T03:16:27.143Z,6.10
2022-09-29T03:18:57.129Z,6.77
2022-09-29T03:21:31.016Z,6.80
2022-09-29T03:23:59.876Z,6.70
2022-09-29T03:26:30.198Z,6.60
2022-09-29T03:28:59.106Z,6.40
2022-09-29T03:31:27.054Z,6.47
2022-09-29T03:33:55.652Z,7.30
2022-09-29T03:36:23.633Z,7.23
2022-09-29T03:38:52.146Z,7.00
2022-09-29T03:41:20.029Z,7.23
2022-09-29T03:43:49.606Z,7.37
2022-09-29T03:46:18.748Z,7.10
2022-09-29T03:48:47.385Z,6.43
2022-09-29T03:51:15.313Z,6.37
2022-09-29T03:53:43.455Z,6.63
2022-09-29T03:56:11.326Z,6.33
2022-09-29T03:58:39.480Z,6.47
2022-09-29T04:01:09.232Z,6.40
2022-09-29T04:03:37.151Z,6.63
2022-09-29T04:06:05.887Z,7.20
2022-09-29T04:08:36.631Z,7.70
2022-09-29T04:11:04.984Z,7.40
2022-09-29T04:13:33.562Z,8.60
2022-09-29T04:16:03.624Z,8.70
2022-09-29T04:18:33.727Z,9.10
2022-09-29T04:21:07.231Z,10.87
2022-09-29T04:23:35.700Z,10.00
2022-09-29T04:26:05.123Z,9.20
2022-09-29T04:28:33.861Z,10.80
2022-09-29T04:31:02.699Z,10.43
2022-09-29T04:33:32.090Z,11.27
2022-09-29T04:36:01.140Z,10.53
2022-09-29T04:38:29.102Z,9.40
2022-09-29T04:40:57.726Z,11.27
2022-09-29T04:43:26.190Z,11.10
2022-09-29T04:45:54.610Z,9.60
2022-09-29T04:48:23.807Z,10.60
2022-09-29T04:50:54.976Z,11.13
2022-09-29T04:53:22.814Z,9.60
2022-09-29T04:55:51.818Z,10.17
2022-09-29T04:58:19.975Z,10.63
2022-09-29T05:00:48.705Z,10.13
2022-09-29T05:03:16.670Z,11.60
2022-09-29T05:05:45.187Z,11.60
2022-09-29T05:08:14.499Z,12.33
2022-09-29T05:10:43.257Z,11.60
2022-09-29T05:13:11.507Z,13.00
2022-09-29T05:15:40.823Z,9.80
2022-09-29T05:18:09.199Z,10.10
2022-09-29T05:20:43.758Z,10.33
2022-09-29T05:23:17.001Z,10.63
2022-09-29T05:25:45.661Z,8.87
2022-09-29T05:28:15.194Z,9.77
2022-09-29T05:30:43.800Z,9.37
2022-09-29T05:33:11.941Z,10.10
2022-09-29T05:35:41.152Z,10.10
2022-09-29T05:38:10.101Z,9.83
2022-09-29T05:40:40.366Z,9.37
2022-09-29T05:43:08.765Z,10.47
2022-09-29T05:45:37.713Z,10.50
2022-09-29T05:48:05.632Z,8.77
2022-09-29T05:50:41.795Z,8.90
2022-09-29T05:53:11.999Z,11.00
2022-09-29T05:55:42.190Z,12.10
2022-09-29T05:58:10.970Z,10.73
2022-09-29T06:00:55.267Z,12.40
2022-09-29T06:03:23.882Z,10.93
2022-09-29T06:05:53.300Z,10.30
2022-09-29T06:08:21.456Z,10.73
2022-09-29T06:10:51.648Z,10.20
2022-09-29T06:13:19.645Z,11.83
2022-09-29T06:15:48.369Z,9.90
2022-09-29T06:18:16.466Z,10.57
2022-09-29T06:20:48.155Z,9.80
2022-09-29T06:23:16.088Z,11.07
2022-09-29T06:25:46.067Z,9.83
2022-09-29T06:28:16.986Z,8.60
2022-09-29T06:30:45.631Z,7.03
2022-09-29T06:33:14.076Z,6.47
2022-09-29T06:36:05.525Z,5.77
2022-09-29T06:38:35.304Z,5.17
2022-09-29T06:41:03.313Z,5.37
2022-09-29T06:44:02.192Z,6.07
2022-09-29T06:46:31.934Z,5.67
2022-09-29T06:49:00.652Z,6.60
2022-09-29T06:51:42.033Z,5.93
2022-09-29T06:54:13.858Z,5.70
2022-09-29T06:56:42.648Z,5.77
2022-09-29T06:59:12.881Z,6.03
2022-09-29T07:01:42.680Z,5.93
2022-09-29T07:04:11.439Z,6.10
2022-09-29T07:06:39.638Z,5.40
2022-09-29T07:09:08.530Z,6.00
2022-09-29T07:11:38.799Z,5.27
2022-09-29T07:14:07.436Z,5.67
2022-09-29T07:16:35.415Z,4.87
2022-09-29T07:19:05.585Z,4.43
2022-09-29T07:21:33.583Z,5.00
2022-09-29T07:24:02.584Z,4.30
2022-09-29T07:26:30.612Z,5.43
2022-09-29T07:28:59.401Z,5.30
2022-09-29T07:31:31.119Z,5.20
2022-09-29T07:34:06.048Z,5.30
2022-09-29T07:36:34.677Z,4.80
2022-09-29T07:39:02.992Z,5.57
2022-09-29T07:41:32.192Z,5.40
2022-09-29T07:44:00.601Z,5.23
2022-09-29T07:46:28.913Z,5.60
2022-09-29T07:48:57.847Z,5.23
2022-09-29T07:51:27.461Z,5.30
2022-09-29T07:53:56.010Z,5.40
2022-09-29T07:56:24.744Z,4.90
2022-09-29T07:58:54.096Z,5.50
2022-09-29T08:01:22.587Z,5.33
2022-09-29T08:03:53.097Z,5.50
2022-09-29T08:06:21.999Z,5.57
2022-09-29T08:09:02.648Z,5.30
2022-09-29T08:11:33.586Z,4.80
2022-09-29T08:14:03.596Z,4.63
2022-09-29T08:16:32.569Z,5.40
2022-09-29T08:19:01.806Z,4.87
2022-09-29T08:21:31.636Z,5.23
2022-09-29T08:24:02.859Z,5.40
2022-09-29T08:26:42.587Z,4.93
2022-09-29T08:29:17.524Z,5.67
2022-09-29T08:31:47.473Z,4.77
2022-09-29T08:34:16.220Z,5.10
2022-09-29T08:36:44.738Z,4.97
2022-09-29T08:39:15.934Z,5.03
2022-09-29T08:41:57.265Z,4.77
2022-09-29T08:44:38.939Z,5.10
2022-09-29T08:47:18.740Z,5.00
2022-09-29T08:49:51.520Z,4.50
2022-09-29T08:52:23.232Z,4.80
2022-09-29T08:55:02.219Z,4.80
2022-09-29T08:57:37.415Z,5.30
2022-09-29T09:00:06.442Z,4.63
2022-09-29T09:03:00.565Z,4.93
2022-09-29T09:05:54.907Z,4.20
2022-09-29T09:08:45.398Z,4.13
2022-09-29T09:11:31.055Z,5.03
2022-09-29T09:14:09.991Z,4.37
2022-09-29T09:16:50.598Z,4.33
2022-09-29T09:19:56.387Z,5.10
2022-09-29T09:22:26.381Z,4.67
2022-09-29T09:24:59.636Z,3.93
2022-09-29T09:27:35.987Z,4.90
2022-09-29T09:30:09.182Z,5.00
2022-09-29T09:32:43.373Z,4.30
2022-09-29T09:35:34.011Z,4.03
2022-09-29T09:38:05.537Z,4.30
2022-09-29T09:40:41.662Z,4.50
2022-09-29T09:43:18.724Z,4.33
2022-09-29T09:45:52.679Z,4.73
2022-09-29T09:48:31.418Z,4.27
2022-09-29T09:51:03.255Z,4.43
2022-09-29T09:53:37.974Z,4.00
2022-09-29T09:56:19.764Z,3.77
2022-09-29T09:59:13.104Z,3.93
2022-09-29T10:01:42.157Z,3.87
2022-09-29T10:04:13.709Z,3.83
2022-09-29T10:06:42.570Z,3.70
2022-09-29T10:09:14.836Z,3.70
2022-09-29T10:11:44.699Z,3.83
2022-09-29T10:14:18.085Z,3.60
2022-09-29T10:16:50.200Z,3.83
2022-09-29T10:19:23.710Z,3.77
2022-09-29T10:21:51.681Z,3.63
2022-09-29T10:24:26.510Z,3.00
2022-09-29T10:26:57.707Z,3.10
2022-09-29T10:29:32.646Z,3.87
2022-09-29T10:32:05.668Z,3.20
2022-09-29T10:34:39.970Z,3.13
2022-09-29T10:37:23.547Z,4.07
2022-09-29T10:39:53.057Z,3.27
2022-09-29T10:42:24.264Z,3.87
2022-09-29T10:44:56.235Z,3.00
2022-09-29T10:47:24.868Z,3.27
2022-09-29T10:50:13.677Z,2.10
2022-09-29T10:52:44.710Z,2.40
2022-09-29T10:55:19.759Z,2.50
2022-09-29T10:57:48.439Z,2.90
2022-09-29T11:00:31.559Z,2.77
2022-09-29T11:03:18.146Z,3.37
2022-09-29T11:05:54.507Z,3.00
2022-09-29T11:08:25.988Z,3.33
2022-09-29T11:11:06.479Z,2.93
2022-09-29T11:13:39.707Z,2.57
2022-09-29T11:16:16.867Z,2.53
2022-09-29T11:18:47.884Z,4.07
2022-09-29T11:21:46.281Z,4.37
2022-09-29T11:24:20.534Z,4.23
2022-09-29T11:26:55.567Z,5.17
2022-09-29T11:29:37.256Z,4.50
2022-09-29T11:32:25.437Z,5.03
2022-09-29T11:35:33.843Z,4.33
2022-09-29T11:38:19.581Z,3.97
2022-09-29T11:41:02.201Z,4.30
2022-09-29T11:43:42.386Z,4.47
2022-09-29T11:46:22.708Z,5.10
2022-09-29T11:49:06.333Z,4.03
2022-09-29T11:51:46.646Z,4.70
2022-09-29T11:54:35.328Z,4.57
2022-09-29T11:57:10.709Z,4.40
2022-09-29T12:00:01.626Z,4.23
2022-09-29T12:03:17.579Z,4.50
2022-09-29T12:05:59.387Z,4.10
2022-09-29T12:08:43.852Z,3.73
2022-09-29T12:11:44.262Z,3.90
2022-09-29T12:14:17.806Z,4.40
2022-09-29T12:16:57.723Z,4.83
2022-09-29T12:19:29.619Z,4.07
2022-09-29T12:22:04.397Z,3.37
2022-09-29T12:24:37.422Z,2.67
2022-09-29T12:27:09.513Z,2.23
2022-09-29T12:29:42.601Z,1.60
2022-09-29T12:32:19.076Z,2.00
2022-09-29T12:34:52.073Z,3.27
2022-09-29T12:37:28.852Z,3.43
2022-09-29T12:40:02.976Z,3.83
2022-09-29T12:42:48.061Z,4.47
2022-09-29T12:45:24.455Z,3.83
2022-09-29T12:48:00.702Z,4.10
2022-09-29T12:50:31.987Z,3.80
2022-09-29T12:53:10.688Z,4.10
2022-09-29T12:55:48.006Z,4.27
2022-09-29T12:58:23.678Z,4.00
2022-09-29T13:01:00.507Z,3.10
2022-09-29T13:04:04.129Z,4.13
2022-09-29T13:06:59.160Z,3.57
2022-09-29T13:09:46.541Z,4.10
2022-09-29T13:12:29.878Z,3.47
2022-09-29T13:15:37.365Z,4.00
2022-09-29T13:18:39.462Z,3.37
2022-09-29T13:21:19.892Z,4.20
2022-09-29T13:24:07.034Z,2.80
2022-09-29T13:27:07.541Z,2.50
2022-09-29T13:29:46.873Z,2.50
2022-09-29T13:32:16.010Z,2.43
2022-09-29T13:34:50.802Z,2.30
2022-09-29T13:37:21.846Z,2.13
2022-09-29T13:40:01.423Z,2.40
2022-09-29T13:42:44.805Z,1.60
2022-09-29T13:45:39.061Z,1.57
2022-09-29T13:48:45.927Z,1.70
2022-09-29T13:51:50.197Z,2.80
2022-09-29T13:54:37.281Z,3.20
2022-09-29T13:57:27.939Z,1.00
2022-09-29T14:00:25.997Z,1.07
2022-09-29T14:03:07.467Z,1.20
2022-09-29T14:05:48.735Z,1.47
2022-09-29T14:08:21.896Z,1.30
2022-09-29T14:10:55.413Z,1.80
2022-09-29T14:13:28.959Z,1.53
2022-09-29T14:16:15.884Z,1.67
2022-09-29T14:18:48.095Z,1.90
2022-09-29T14:21:50.636Z,1.97
2022-09-29T14:24:47.256Z,1.50
2022-09-29T14:27:32.722Z,1.60
2022-09-29T14:30:17.870Z,2.30
2022-09-29T14:32:53.494Z,2.70
2022-09-29T14:35:27.632Z,2.87
2022-09-29T14:38:03.435Z,2.17
2022-09-29T14:40:32.628Z,2.43
2022-09-29T14:43:11.997Z,2.20
2022-09-29T14:46:25.846Z,3.10
2022-09-29T14:49:27.496Z,3.53
2022-09-29T14:52:05.286Z,3.40
2022-09-29T14:54:49.658Z,2.97
2022-09-29T14:57:48.575Z,5.03
2022-09-29T15:00:19.637Z,4.00
2022-09-29T15:02:59.867Z,2.00
2022-09-29T15:05:39.905Z,3.07
2022-09-29T15:08:34.659Z,2.33
2022-09-29T15:11:04.249Z,2.40
2022-09-29T15:13:32.464Z,2.90
2022-09-29T15:16:05.641Z,3.00
2022-09-29T15:18:49.897Z,3.07
2022-09-29T15:21:24.489Z,2.30
2022-09-29T15:24:24.865Z,2.10
2022-09-29T15:26:53.726Z,2.77
2022-09-29T15:29:22.076Z,2.67
2022-09-29T15:31:50.859Z,3.00
2022-09-29T15:34:21.627Z,2.60
2022-09-29T15:36:53.443Z,2.77
2022-09-29T15:39:45.138Z,2.73
2022-09-29T15:42:22.200Z,3.77
2022-09-29T15:44:56.860Z,9.27
2022-09-29T15:47:29.747Z,6.10
2022-09-29T15:49:57.938Z,2.73
2022-09-29T15:52:29.099Z,2.53
2022-09-29T15:54:59.381Z,1.83
2022-09-29T15:57:50.615Z,2.80
2022-09-29T16:00:54.614Z,2.60
2022-09-29T16:03:32.190Z,3.33
2022-09-29T16:06:05.397Z,3.30
2022-09-29T16:08:39.975Z,2.77
2022-09-29T16:11:10.294Z,2.93
2022-09-29T16:13:42.062Z,2.90
2022-09-29T16:16:12.628Z,2.27
2022-09-29T16:18:43.260Z,2.83
2022-09-29T16:21:13.909Z,2.17
2022-09-29T16:23:48.834Z,2.37
2022-09-29T16:26:20.510Z,3.60
2022-09-29T16:29:06.065Z,2.67
2022-09-29T16:31:35.120Z,2.43
2022-09-29T16:34:03.321Z,2.50
2022-09-29T16:36:36.913Z,2.30
2022-09-29T16:39:08.022Z,2.43
2022-09-29T16:41:38.345Z,2.80
2022-09-29T16:44:13.638Z,3.27
2022-09-29T16:46:49.630Z,2.53
2022-09-29T16:49:20.509Z,3.90
2022-09-29T16:51:50.954Z,4.07
2022-09-29T16:54:24.457Z,4.60
2022-09-29T16:57:22.909Z,3.97
2022-09-29T16:59:53.062Z,3.90
2022-09-29T17:02:23.789Z,4.50
2022-09-29T17:04:52.172Z,3.63
2022-09-29T17:07:22.530Z,4.00
2022-09-29T17:09:54.637Z,3.87
2022-09-29T17:12:23.926Z,3.73
2022-09-29T17:14:51.932Z,3.23
2022-09-29T17:17:22.920Z,3.33
2022-09-29T17:19:51.002Z,4.80
2022-09-29T17:22:26.612Z,4.03
2022-09-29T17:24:55.815Z,3.73
2022-09-29T17:27:42.132Z,3.93
2022-09-29T17:30:11.903Z,3.00
2022-09-29T17:32:42.232Z,3.57
2022-09-29T17:35:12.731Z,3.20
2022-09-29T17:37:40.524Z,3.67
2022-09-29T17:40:21.850Z,3.80
2022-09-29T17:42:50.379Z,3.43
2022-09-29T17:45:21.301Z,4.00
2022-09-29T17:47:50.400Z,3.10
2022-09-29T17:50:26.567Z,4.40
2022-09-29T17:52:55.767Z,3.07
2022-09-29T17:55:25.417Z,3.73
2022-09-29T17:57:55.065Z,3.40
2022-09-29T18:00:25.033Z,4.17
2022-09-29T18:02:57.074Z,4.50
2022-09-29T18:05:26.593Z,3.97
2022-09-29T18:07:56.095Z,3.40
2022-09-29T18:10:29.116Z,3.30
2022-09-29T18:12:57.866Z,3.60
2022-09-29T18:15:29.267Z,4.50
2022-09-29T18:17:59.370Z,3.67
2022-09-29T18:20:29.740Z,3.90
2022-09-29T18:23:00.775Z,4.50
2022-09-29T18:25:32.291Z,3.30
2022-09-29T18:28:01.167Z,4.07
2022-09-29T18:30:30.942Z,4.63
2022-09-29T18:33:02.039Z,5.10
2022-09-29T18:35:32.380Z,4.50
2022-09-29T18:38:01.262Z,5.03
2022-09-29T18:40:32.487Z,4.70
2022-09-29T18:43:01.193Z,4.30
2022-09-29T18:45:32.103Z,4.00
2022-09-29T18:48:03.798Z,3.67
2022-09-29T18:50:34.803Z,5.70
2022-09-29T18:53:03.411Z,8.30
2022-09-29T18:55:33.438Z,9.50
2022-09-29T18:58:02.436Z,9.47
2022-09-29T19:00:33.250Z,8.53
2022-09-29T19:03:02.882Z,8.60
2022-09-29T19:05:31.839Z,9.90
2022-09-29T19:08:02.454Z,8.67
2022-09-29T19:10:33.600Z,7.30
2022-09-29T19:13:04.733Z,7.20
2022-09-29T19:15:35.470Z,8.70
2022-09-29T19:18:05.658Z,9.70
2022-09-29T19:20:33.667Z,9.53
2022-09-29T19:23:03.250Z,9.57
2022-09-29T19:25:35.531Z,10.53
2022-09-29T19:28:06.080Z,12.13
2022-09-29T19:30:35.783Z,9.67
2022-09-29T19:33:04.296Z,9.70
2022-09-29T19:35:32.206Z,10.80
2022-09-29T19:38:00.329Z,6.77
2022-09-29T19:40:30.627Z,7.43
2022-09-29T19:43:02.657Z,7.10
2022-09-29T19:45:30.447Z,7.80
2022-09-29T19:47:58.302Z,7.83
2022-09-29T19:50:43.785Z,8.20
2022-09-29T19:53:12.289Z,7.93
2022-09-29T19:55:41.148Z,7.30
2022-09-29T19:58:10.962Z,7.77
2022-09-29T20:00:40.727Z,7.03
2022-09-29T20:03:10.162Z,6.50
2022-09-29T20:05:38.896Z,6.53
2022-09-29T20:08:08.054Z,6.93
2022-09-29T20:10:36.300Z,6.60
2022-09-29T20:13:04.946Z,6.30
2022-09-29T20:15:34.123Z,6.07
2022-09-29T20:18:01.917Z,5.30
2022-09-29T20:20:29.746Z,5.33
2022-09-29T20:22:58.187Z,6.17
2022-09-29T20:25:26.058Z,6.50
2022-09-29T20:27:55.543Z,5.50
2022-09-29T20:30:23.319Z,9.10
2022-09-29T20:32:53.375Z,10.07
2022-09-29T20:35:21.138Z,9.30
2022-09-29T20:37:49.662Z,9.73
2022-09-29T20:40:17.776Z,9.87
2022-09-29T20:42:46.473Z,9.70
2022-09-29T20:45:16.172Z,9.27
2022-09-29T20:47:44.687Z,9.03
2022-09-29T20:50:15.196Z,8.17
2022-09-29T20:52:43.734Z,6.60
2022-09-29T20:55:11.941Z,6.50
2022-09-29T20:57:44.071Z,5.30
2022-09-29T21:00:14.834Z,4.97
2022-09-29T21:02:43.459Z,5.10
2022-09-29T21:05:11.816Z,5.60
2022-09-29T21:07:43.330Z,7.17
2022-09-29T21:10:12.113Z,5.43
2022-09-29T21:12:40.899Z,3.90
2022-09-29T21:15:09.463Z,4.57
2022-09-29T21:17:38.001Z,4.80
2022-09-29T21:20:06.612Z,4.90
2022-09-29T21:22:35.733Z,4.10
2022-09-29T21:25:05.334Z,4.93
2022-09-29T21:27:37.560Z,6.03
2022-09-29T21:30:09.897Z,5.07
2022-09-29T21:32:38.472Z,4.67
2022-09-29T21:35:07.493Z,5.07
2022-09-29T21:37:36.486Z,5.70
2022-09-29T21:40:06.671Z,5.40
2022-09-29T21:42:35.215Z,5.00
2022-09-29T21:45:03.011Z,5.47
2022-09-29T21:47:44.721Z,5.00
2022-09-29T21:50:12.696Z,5.93
2022-09-29T21:52:41.306Z,4.50
2022-09-29T21:55:11.499Z,5.03
2022-09-29T21:57:40.235Z,5.50
2022-09-29T22:00:09.238Z,4.80
2022-09-29T22:02:37.782Z,5.73
2022-09-29T22:05:06.140Z,7.43
2022-09-29T22:07:34.369Z,5.50
2022-09-29T22:10:02.237Z,5.57
2022-09-29T22:12:32.502Z,6.50
2022-09-29T22:15:00.286Z,7.77
2022-09-29T22:17:28.766Z,6.10
2022-09-29T22:19:56.614Z,5.67
2022-09-29T22:22:24.830Z,8.57
2022-09-29T22:24:52.706Z,7.07
2022-09-29T22:27:21.189Z,7.40
2022-09-29T22:29:50.483Z,7.10
2022-09-29T22:32:18.938Z,6.20
2022-09-29T22:34:46.934Z,6.10
2022-09-29T22:37:15.444Z,6.23
2022-09-29T22:39:43.335Z,6.03
2022-09-29T22:42:12.787Z,7.33
2022-09-29T22:44:40.676Z,6.17
2022-09-29T22:47:10.519Z,6.77
2022-09-29T22:49:38.429Z,6.83
2022-09-29T22:52:06.990Z,6.60
2022-09-29T22:54:35.123Z,6.10
2022-09-29T22:57:03.391Z,11.77
2022-09-29T22:59:31.303Z,8.73
2022-09-29T23:02:01.987Z,7.30
2022-09-29T23:04:31.411Z,6.60
2022-09-29T23:06:59.926Z,5.60
2022-09-29T23:09:27.775Z,6.70
2022-09-29T23:11:56.479Z,6.90
2022-09-29T23:14:24.377Z,6.77
2022-09-29T23:16:52.944Z,6.33
2022-09-29T23:19:20.847Z,5.90
2022-09-29T23:21:51.181Z,6.80
2022-09-29T23:24:20.449Z,5.97
2022-09-29T23:26:49.860Z,6.93
2022-09-29T23:29:17.717Z,6.40
2022-09-29T23:31:49.579Z,6.50
2022-09-29T23:34:17.905Z,7.93
2022-09-29T23:36:46.378Z,6.40
2022-09-29T23:39:14.734Z,6.33
2022-09-29T23:41:44.998Z,6.27
2022-09-29T23:44:15.357Z,6.27
2022-09-29T23:46:44.751Z,5.50
2022-09-29T23:49:15.160Z,5.80
2022-09-29T23:51:45.305Z,5.50
2022-09-29T23:54:18.097Z,6.73
2022-09-29T23:56:46.949Z,5.33
2022-09-29T23:59:15.663Z,6.07
